sensor_id;sensor_type;location;lat;lon;timestamp;P1;durP1;ratioP1;P2;durP2;ratioP2
59876;SDS011;45749;51.140;17.184;2022-12-11T00:01:14;75.42;;;36.08;;
59876;SDS011;45749;51.140;17.184;2022-12-11T00:03:43;68.80;;;36.13;;
59876;SDS011;45749;51.140;17.184;2022-12-11T00:06:10;69.85;;;36.65;;
59876;SDS011;45749;51.140;17.184;2022-12-11T00:08:39;74.42;;;38.02;;
59876;SDS011;45749;51.140;17.184;2022-12-11T00:11:08;81.67;;;40.75;;
59876;SDS011;45749;51.140;17.184;2022-12-11T00:13:40;71.97;;;38.90;;
59876;SDS011;45749;51.140;17.184;2022-12-11T00:16:09;74.17;;;38.28;;
59876;SDS011;45749;51.140;17.184;2022-12-11T00:18:35;73.00;;;39.13;;
59876;SDS011;45749;51.140;17.184;2022-12-11T00:21:02;70.25;;;38.53;;
59876;SDS011;45749;51.140;17.184;2022-12-11T00:23:31;67.95;;;37.88;;
59876;SDS011;45749;51.140;17.184;2022-12-11T00:25:59;80.15;;;39.83;;
59876;SDS011;45749;51.140;17.184;2022-12-11T00:28:27;79.35;;;39.73;;
59876;SDS011;45749;51.140;17.184;2022-12-11T00:30:53;74.70;;;39.35;;
59876;SDS011;45749;51.140;17.184;2022-12-11T00:33:19;72.35;;;38.98;;
59876;SDS011;45749;51.140;17.184;2022-12-11T00:35:45;76.65;;;38.33;;
59876;SDS011;45749;51.140;17.184;2022-12-11T00:38:16;82.80;;;41.53;;
59876;SDS011;45749;51.140;17.184;2022-12-11T00:40:44;70.78;;;36.45;;
59876;SDS011;45749;51.140;17.184;2022-12-11T00:43:11;70.05;;;37.95;;
59876;SDS011;45749;51.140;17.184;2022-12-11T00:45:38;78.90;;;38.02;;
59876;SDS011;45749;51.140;17.184;2022-12-11T00:48:07;69.25;;;35.43;;
59876;SDS011;45749;51.140;17.184;2022-12-11T00:50:36;69.00;;;35.78;;
59876;SDS011;45749;51.140;17.184;2022-12-11T00:53:04;74.67;;;37.75;;
59876;SDS011;45749;51.140;17.184;2022-12-11T00:55:31;70.70;;;35.90;;
59876;SDS011;45749;51.140;17.184;2022-12-11T00:58:04;68.75;;;36.85;;
59876;SDS011;45749;51.140;17.184;2022-12-11T01:00:31;71.50;;;34.15;;
59876;SDS011;45749;51.140;17.184;2022-12-11T01:02:58;73.00;;;35.40;;
59876;SDS011;45749;51.140;17.184;2022-12-11T01:05:24;65.80;;;35.78;;
59876;SDS011;45749;51.140;17.184;2022-12-11T01:07:50;60.55;;;34.40;;
59876;SDS011;45749;51.140;17.184;2022-12-11T01:10:16;64.42;;;34.73;;
59876;SDS011;45749;51.140;17.184;2022-12-11T01:12:58;73.65;;;35.95;;
59876;SDS011;45749;51.140;17.184;2022-12-11T01:15:29;71.35;;;36.55;;
59876;SDS011;45749;51.140;17.184;2022-12-11T01:18:05;61.75;;;34.45;;
59876;SDS011;45749;51.140;17.184;2022-12-11T01:20:31;73.45;;;35.25;;
59876;SDS011;45749;51.140;17.184;2022-12-11T01:22:58;64.87;;;34.05;;
59876;SDS011;45749;51.140;17.184;2022-12-11T01:25:25;71.42;;;36.50;;
59876;SDS011;45749;51.140;17.184;2022-12-11T01:27:53;66.07;;;34.30;;
59876;SDS011;45749;51.140;17.184;2022-12-11T01:30:21;66.72;;;34.00;;
59876;SDS011;45749;51.140;17.184;2022-12-11T01:32:49;68.20;;;35.28;;
59876;SDS011;45749;51.140;17.184;2022-12-11T01:35:15;59.63;;;30.40;;
59876;SDS011;45749;51.140;17.184;2022-12-11T01:37:41;61.08;;;32.98;;
59876;SDS011;45749;51.140;17.184;2022-12-11T01:40:08;63.17;;;32.98;;
59876;SDS011;45749;51.140;17.184;2022-12-11T01:42:37;65.57;;;34.03;;
59876;SDS011;45749;51.140;17.184;2022-12-11T01:47:59;69.70;;;35.58;;
59876;SDS011;45749;51.140;17.184;2022-12-11T01:50:29;69.60;;;33.73;;
59876;SDS011;45749;51.140;17.184;2022-12-11T01:53:01;71.22;;;34.10;;
59876;SDS011;45749;51.140;17.184;2022-12-11T01:55:31;72.58;;;38.48;;
59876;SDS011;45749;51.140;17.184;2022-12-11T01:57:58;72.47;;;34.78;;
59876;SDS011;45749;51.140;17.184;2022-12-11T02:00:25;67.00;;;34.98;;
59876;SDS011;45749;51.140;17.184;2022-12-11T02:02:51;69.12;;;36.00;;
59876;SDS011;45749;51.140;17.184;2022-12-11T02:05:17;64.45;;;33.78;;
59876;SDS011;45749;51.140;17.184;2022-12-11T02:07:47;62.60;;;34.92;;
59876;SDS011;45749;51.140;17.184;2022-12-11T02:10:22;62.38;;;33.80;;
59876;SDS011;45749;51.140;17.184;2022-12-11T02:12:53;63.85;;;34.60;;
59876;SDS011;45749;51.140;17.184;2022-12-11T02:15:31;69.95;;;35.10;;
59876;SDS011;45749;51.140;17.184;2022-12-11T02:18:22;74.67;;;37.13;;
59876;SDS011;45749;51.140;17.184;2022-12-11T02:24:03;64.95;;;32.25;;
59876;SDS011;45749;51.140;17.184;2022-12-11T02:26:53;62.13;;;33.38;;
59876;SDS011;45749;51.140;17.184;2022-12-11T02:29:32;58.68;;;34.73;;
59876;SDS011;45749;51.140;17.184;2022-12-11T02:32:12;66.35;;;33.50;;
59876;SDS011;45749;51.140;17.184;2022-12-11T02:34:45;67.90;;;34.85;;
59876;SDS011;45749;51.140;17.184;2022-12-11T02:37:22;62.05;;;33.63;;
59876;SDS011;45749;51.140;17.184;2022-12-11T02:39:51;64.62;;;33.02;;
59876;SDS011;45749;51.140;17.184;2022-12-11T02:42:21;65.05;;;33.13;;
59876;SDS011;45749;51.140;17.184;2022-12-11T02:44:51;66.40;;;33.30;;
59876;SDS011;45749;51.140;17.184;2022-12-11T02:47:21;72.62;;;34.50;;
59876;SDS011;45749;51.140;17.184;2022-12-11T02:49:49;64.82;;;32.45;;
59876;SDS011;45749;51.140;17.184;2022-12-11T02:52:18;69.05;;;34.73;;
59876;SDS011;45749;51.140;17.184;2022-12-11T02:54:46;69.15;;;36.93;;
59876;SDS011;45749;51.140;17.184;2022-12-11T03:00:13;67.42;;;32.93;;
59876;SDS011;45749;51.140;17.184;2022-12-11T03:02:41;64.97;;;32.67;;
59876;SDS011;45749;51.140;17.184;2022-12-11T03:05:09;61.50;;;34.20;;
59876;SDS011;45749;51.140;17.184;2022-12-11T03:07:38;61.00;;;33.35;;
59876;SDS011;45749;51.140;17.184;2022-12-11T03:10:07;66.87;;;33.63;;
59876;SDS011;45749;51.140;17.184;2022-12-11T03:12:39;58.33;;;33.27;;
59876;SDS011;45749;51.140;17.184;2022-12-11T03:15:10;60.92;;;34.05;;
59876;SDS011;45749;51.140;17.184;2022-12-11T03:25:55;61.65;;;33.45;;
59876;SDS011;45749;51.140;17.184;2022-12-11T03:28:29;59.90;;;32.13;;
59876;SDS011;45749;51.140;17.184;2022-12-11T03:31:10;65.67;;;35.03;;
59876;SDS011;45749;51.140;17.184;2022-12-11T03:33:49;62.55;;;32.33;;
59876;SDS011;45749;51.140;17.184;2022-12-11T03:36:20;67.95;;;33.13;;
59876;SDS011;45749;51.140;17.184;2022-12-11T03:39:00;60.28;;;32.20;;
59876;SDS011;45749;51.140;17.184;2022-12-11T03:41:32;64.47;;;32.20;;
59876;SDS011;45749;51.140;17.184;2022-12-11T03:44:00;57.25;;;32.33;;
59876;SDS011;45749;51.140;17.184;2022-12-11T03:46:28;60.08;;;33.83;;
59876;SDS011;45749;51.140;17.184;2022-12-11T03:48:58;69.27;;;31.10;;
59876;SDS011;45749;51.140;17.184;2022-12-11T03:51:28;64.25;;;31.70;;
59876;SDS011;45749;51.140;17.184;2022-12-11T03:53:56;60.10;;;31.52;;
59876;SDS011;45749;51.140;17.184;2022-12-11T03:56:24;62.13;;;30.70;;
59876;SDS011;45749;51.140;17.184;2022-12-11T03:58:53;58.90;;;28.38;;
59876;SDS011;45749;51.140;17.184;2022-12-11T04:01:19;60.52;;;32.90;;
59876;SDS011;45749;51.140;17.184;2022-12-11T04:03:45;62.10;;;31.73;;
59876;SDS011;45749;51.140;17.184;2022-12-11T04:06:11;63.85;;;30.10;;
59876;SDS011;45749;51.140;17.184;2022-12-11T04:08:37;60.55;;;31.50;;
59876;SDS011;45749;51.140;17.184;2022-12-11T04:11:03;56.08;;;28.67;;
59876;SDS011;45749;51.140;17.184;2022-12-11T04:13:47;63.20;;;32.38;;
59876;SDS011;45749;51.140;17.184;2022-12-11T04:16:15;65.25;;;29.92;;
59876;SDS011;45749;51.140;17.184;2022-12-11T04:18:41;60.48;;;29.82;;
59876;SDS011;45749;51.140;17.184;2022-12-11T04:21:25;56.28;;;29.18;;
59876;SDS011;45749;51.140;17.184;2022-12-11T04:24:10;62.00;;;32.08;;
59876;SDS011;45749;51.140;17.184;2022-12-11T04:26:39;61.88;;;31.70;;
59876;SDS011;45749;51.140;17.184;2022-12-11T04:29:06;61.33;;;31.35;;
59876;SDS011;45749;51.140;17.184;2022-12-11T04:31:32;60.80;;;33.08;;
59876;SDS011;45749;51.140;17.184;2022-12-11T04:33:58;63.00;;;29.07;;
59876;SDS011;45749;51.140;17.184;2022-12-11T04:36:24;62.33;;;30.50;;
59876;SDS011;45749;51.140;17.184;2022-12-11T04:38:51;51.98;;;28.75;;
59876;SDS011;45749;51.140;17.184;2022-12-11T04:41:17;56.98;;;29.02;;
59876;SDS011;45749;51.140;17.184;2022-12-11T04:43:43;56.40;;;29.02;;
59876;SDS011;45749;51.140;17.184;2022-12-11T04:46:13;56.60;;;29.63;;
59876;SDS011;45749;51.140;17.184;2022-12-11T04:48:45;51.90;;;27.82;;
59876;SDS011;45749;51.140;17.184;2022-12-11T04:51:12;52.23;;;28.65;;
59876;SDS011;45749;51.140;17.184;2022-12-11T04:53:39;50.20;;;27.07;;
59876;SDS011;45749;51.140;17.184;2022-12-11T04:56:10;51.95;;;29.05;;
59876;SDS011;45749;51.140;17.184;2022-12-11T04:58:36;48.83;;;27.58;;
59876;SDS011;45749;51.140;17.184;2022-12-11T05:01:11;46.13;;;25.30;;
59876;SDS011;45749;51.140;17.184;2022-12-11T05:03:43;44.93;;;26.85;;
59876;SDS011;45749;51.140;17.184;2022-12-11T05:06:09;50.73;;;26.90;;
59876;SDS011;45749;51.140;17.184;2022-12-11T05:08:37;48.33;;;27.02;;
59876;SDS011;45749;51.140;17.184;2022-12-11T05:11:08;44.73;;;25.88;;
59876;SDS011;45749;51.140;17.184;2022-12-11T05:13:36;45.58;;;25.17;;
59876;SDS011;45749;51.140;17.184;2022-12-11T05:16:04;49.67;;;28.95;;
59876;SDS011;45749;51.140;17.184;2022-12-11T05:18:32;55.23;;;28.02;;
59876;SDS011;45749;51.140;17.184;2022-12-11T05:21:03;56.13;;;30.27;;
59876;SDS011;45749;51.140;17.184;2022-12-11T05:23:29;53.70;;;28.65;;
59876;SDS011;45749;51.140;17.184;2022-12-11T05:25:56;48.87;;;28.77;;
59876;SDS011;45749;51.140;17.184;2022-12-11T05:28:26;49.73;;;28.45;;
59876;SDS011;45749;51.140;17.184;2022-12-11T05:30:54;47.65;;;26.90;;
59876;SDS011;45749;51.140;17.184;2022-12-11T05:33:26;47.95;;;28.45;;
59876;SDS011;45749;51.140;17.184;2022-12-11T05:35:53;54.75;;;29.10;;
59876;SDS011;45749;51.140;17.184;2022-12-11T05:38:20;47.17;;;27.85;;
59876;SDS011;45749;51.140;17.184;2022-12-11T05:41:03;51.85;;;29.20;;
59876;SDS011;45749;51.140;17.184;2022-12-11T05:43:30;46.50;;;27.98;;
59876;SDS011;45749;51.140;17.184;2022-12-11T05:46:05;50.40;;;26.87;;
59876;SDS011;45749;51.140;17.184;2022-12-11T05:48:34;50.70;;;26.48;;
59876;SDS011;45749;51.140;17.184;2022-12-11T05:51:00;44.25;;;25.12;;
59876;SDS011;45749;51.140;17.184;2022-12-11T05:53:28;45.15;;;26.00;;
59876;SDS011;45749;51.140;17.184;2022-12-11T05:56:05;42.05;;;25.52;;
59876;SDS011;45749;51.140;17.184;2022-12-11T05:58:35;45.60;;;26.97;;
59876;SDS011;45749;51.140;17.184;2022-12-11T06:01:01;52.73;;;28.10;;
59876;SDS011;45749;51.140;17.184;2022-12-11T06:03:33;50.78;;;29.07;;
59876;SDS011;45749;51.140;17.184;2022-12-11T06:06:00;49.95;;;27.85;;
59876;SDS011;45749;51.140;17.184;2022-12-11T06:08:27;45.63;;;25.85;;
59876;SDS011;45749;51.140;17.184;2022-12-11T06:10:54;45.43;;;26.60;;
59876;SDS011;45749;51.140;17.184;2022-12-11T06:13:19;41.98;;;25.80;;
59876;SDS011;45749;51.140;17.184;2022-12-11T06:15:45;45.20;;;25.85;;
59876;SDS011;45749;51.140;17.184;2022-12-11T06:18:11;51.02;;;29.02;;
59876;SDS011;45749;51.140;17.184;2022-12-11T06:20:37;46.23;;;29.07;;
59876;SDS011;45749;51.140;17.184;2022-12-11T06:23:03;45.80;;;26.42;;
59876;SDS011;45749;51.140;17.184;2022-12-11T06:25:29;48.17;;;28.95;;
59876;SDS011;45749;51.140;17.184;2022-12-11T06:27:56;45.10;;;26.20;;
59876;SDS011;45749;51.140;17.184;2022-12-11T06:30:22;48.42;;;26.62;;
59876;SDS011;45749;51.140;17.184;2022-12-11T06:32:48;47.00;;;27.62;;
59876;SDS011;45749;51.140;17.184;2022-12-11T06:35:14;48.30;;;27.98;;
59876;SDS011;45749;51.140;17.184;2022-12-11T06:37:40;44.23;;;26.68;;
59876;SDS011;45749;51.140;17.184;2022-12-11T06:40:08;44.18;;;25.17;;
59876;SDS011;45749;51.140;17.184;2022-12-11T06:42:36;43.55;;;24.85;;
59876;SDS011;45749;51.140;17.184;2022-12-11T06:45:03;46.68;;;27.93;;
59876;SDS011;45749;51.140;17.184;2022-12-11T06:47:30;43.75;;;25.90;;
59876;SDS011;45749;51.140;17.184;2022-12-11T06:49:57;44.85;;;24.30;;
59876;SDS011;45749;51.140;17.184;2022-12-11T06:52:24;46.53;;;26.65;;
59876;SDS011;45749;51.140;17.184;2022-12-11T06:54:53;44.58;;;26.33;;
59876;SDS011;45749;51.140;17.184;2022-12-11T06:57:20;44.95;;;26.73;;
59876;SDS011;45749;51.140;17.184;2022-12-11T06:59:46;43.13;;;25.23;;
59876;SDS011;45749;51.140;17.184;2022-12-11T07:02:13;44.85;;;27.48;;
59876;SDS011;45749;51.140;17.184;2022-12-11T07:04:41;41.35;;;25.88;;
59876;SDS011;45749;51.140;17.184;2022-12-11T07:07:08;42.95;;;25.70;;
59876;SDS011;45749;51.140;17.184;2022-12-11T07:09:36;41.33;;;24.20;;
59876;SDS011;45749;51.140;17.184;2022-12-11T07:12:04;42.90;;;24.92;;
59876;SDS011;45749;51.140;17.184;2022-12-11T07:14:31;38.70;;;23.05;;
59876;SDS011;45749;51.140;17.184;2022-12-11T07:16:57;42.95;;;25.27;;
59876;SDS011;45749;51.140;17.184;2022-12-11T07:19:24;42.58;;;25.30;;
59876;SDS011;45749;51.140;17.184;2022-12-11T07:21:50;37.65;;;23.62;;
59876;SDS011;45749;51.140;17.184;2022-12-11T07:24:17;45.08;;;26.55;;
59876;SDS011;45749;51.140;17.184;2022-12-11T07:26:44;41.77;;;23.70;;
59876;SDS011;45749;51.140;17.184;2022-12-11T07:29:10;42.30;;;23.27;;
59876;SDS011;45749;51.140;17.184;2022-12-11T07:31:36;45.50;;;24.85;;
59876;SDS011;45749;51.140;17.184;2022-12-11T07:34:03;39.45;;;23.00;;
59876;SDS011;45749;51.140;17.184;2022-12-11T07:36:30;40.03;;;23.98;;
59876;SDS011;45749;51.140;17.184;2022-12-11T07:38:58;38.63;;;22.40;;
59876;SDS011;45749;51.140;17.184;2022-12-11T07:41:25;38.42;;;24.27;;
59876;SDS011;45749;51.140;17.184;2022-12-11T07:43:53;44.30;;;24.52;;
59876;SDS011;45749;51.140;17.184;2022-12-11T07:46:22;42.58;;;26.27;;
59876;SDS011;45749;51.140;17.184;2022-12-11T07:48:50;52.05;;;29.65;;
59876;SDS011;45749;51.140;17.184;2022-12-11T07:51:24;41.68;;;23.40;;
59876;SDS011;45749;51.140;17.184;2022-12-11T07:53:55;39.98;;;23.32;;
59876;SDS011;45749;51.140;17.184;2022-12-11T07:56:26;42.58;;;25.08;;
59876;SDS011;45749;51.140;17.184;2022-12-11T07:58:54;42.45;;;24.80;;
59876;SDS011;45749;51.140;17.184;2022-12-11T08:01:21;34.03;;;19.70;;
59876;SDS011;45749;51.140;17.184;2022-12-11T08:03:57;38.23;;;21.35;;
59876;SDS011;45749;51.140;17.184;2022-12-11T08:06:25;37.78;;;20.48;;
59876;SDS011;45749;51.140;17.184;2022-12-11T08:08:54;35.60;;;21.85;;
59876;SDS011;45749;51.140;17.184;2022-12-11T08:11:22;36.70;;;20.95;;
59876;SDS011;45749;51.140;17.184;2022-12-11T08:13:49;40.45;;;21.27;;
59876;SDS011;45749;51.140;17.184;2022-12-11T08:16:24;39.88;;;21.85;;
59876;SDS011;45749;51.140;17.184;2022-12-11T08:18:54;34.73;;;21.23;;
59876;SDS011;45749;51.140;17.184;2022-12-11T08:21:21;35.60;;;21.50;;
59876;SDS011;45749;51.140;17.184;2022-12-11T08:23:49;43.42;;;24.67;;
59876;SDS011;45749;51.140;17.184;2022-12-11T08:26:18;49.35;;;26.10;;
59876;SDS011;45749;51.140;17.184;2022-12-11T08:28:53;42.05;;;23.55;;
59876;SDS011;45749;51.140;17.184;2022-12-11T08:31:20;43.63;;;23.95;;
59876;SDS011;45749;51.140;17.184;2022-12-11T08:33:47;44.70;;;24.63;;
59876;SDS011;45749;51.140;17.184;2022-12-11T08:36:15;37.85;;;21.75;;
59876;SDS011;45749;51.140;17.184;2022-12-11T08:38:44;44.83;;;24.92;;
59876;SDS011;45749;51.140;17.184;2022-12-11T08:41:21;55.45;;;31.30;;
59876;SDS011;45749;51.140;17.184;2022-12-11T08:43:53;35.78;;;22.32;;
59876;SDS011;45749;51.140;17.184;2022-12-11T08:46:25;40.65;;;22.67;;
59876;SDS011;45749;51.140;17.184;2022-12-11T08:48:53;43.52;;;25.95;;
59876;SDS011;45749;51.140;17.184;2022-12-11T08:51:20;57.13;;;28.42;;
59876;SDS011;45749;51.140;17.184;2022-12-11T08:53:50;50.15;;;26.57;;
59876;SDS011;45749;51.140;17.184;2022-12-11T08:56:24;37.15;;;22.00;;
59876;SDS011;45749;51.140;17.184;2022-12-11T08:58:51;32.35;;;19.48;;
59876;SDS011;45749;51.140;17.184;2022-12-11T09:01:19;39.05;;;22.70;;
59876;SDS011;45749;51.140;17.184;2022-12-11T09:03:48;35.05;;;20.25;;
59876;SDS011;45749;51.140;17.184;2022-12-11T09:06:19;35.85;;;21.25;;
59876;SDS011;45749;51.140;17.184;2022-12-11T09:08:48;37.08;;;21.82;;
59876;SDS011;45749;51.140;17.184;2022-12-11T09:11:17;214.40;;;96.53;;
59876;SDS011;45749;51.140;17.184;2022-12-11T09:13:49;42.08;;;23.27;;
59876;SDS011;45749;51.140;17.184;2022-12-11T09:16:16;33.48;;;19.50;;
59876;SDS011;45749;51.140;17.184;2022-12-11T09:18:46;32.65;;;19.75;;
59876;SDS011;45749;51.140;17.184;2022-12-11T09:21:18;36.13;;;20.65;;
59876;SDS011;45749;51.140;17.184;2022-12-11T09:23:45;41.68;;;22.37;;
59876;SDS011;45749;51.140;17.184;2022-12-11T09:26:13;32.53;;;19.62;;
59876;SDS011;45749;51.140;17.184;2022-12-11T09:28:42;30.40;;;19.20;;
59876;SDS011;45749;51.140;17.184;2022-12-11T09:31:16;37.85;;;23.50;;
59876;SDS011;45749;51.140;17.184;2022-12-11T09:33:47;32.45;;;18.30;;
59876;SDS011;45749;51.140;17.184;2022-12-11T09:36:14;33.20;;;17.80;;
59876;SDS011;45749;51.140;17.184;2022-12-11T09:38:40;41.98;;;23.98;;
59876;SDS011;45749;51.140;17.184;2022-12-11T09:47:11;34.33;;;18.48;;
59876;SDS011;45749;51.140;17.184;2022-12-11T09:49:52;31.02;;;17.12;;
59876;SDS011;45749;51.140;17.184;2022-12-11T09:52:33;27.52;;;16.62;;
59876;SDS011;45749;51.140;17.184;2022-12-11T09:55:23;35.15;;;18.00;;
59876;SDS011;45749;51.140;17.184;2022-12-11T10:00:43;28.38;;;17.57;;
59876;SDS011;45749;51.140;17.184;2022-12-11T10:05:56;33.38;;;18.73;;
59876;SDS011;45749;51.140;17.184;2022-12-11T10:09:02;35.13;;;19.57;;
59876;SDS011;45749;51.140;17.184;2022-12-11T10:14:35;27.70;;;18.60;;
59876;SDS011;45749;51.140;17.184;2022-12-11T10:17:17;32.70;;;19.20;;
59876;SDS011;45749;51.140;17.184;2022-12-11T10:19:45;30.45;;;17.75;;
59876;SDS011;45749;51.140;17.184;2022-12-11T10:22:20;33.05;;;18.25;;
59876;SDS011;45749;51.140;17.184;2022-12-11T10:24:53;35.20;;;21.77;;
59876;SDS011;45749;51.140;17.184;2022-12-11T10:27:33;38.35;;;21.93;;
59876;SDS011;45749;51.140;17.184;2022-12-11T10:30:17;33.23;;;21.30;;
59876;SDS011;45749;51.140;17.184;2022-12-11T10:35:18;32.55;;;18.95;;
59876;SDS011;45749;51.140;17.184;2022-12-11T10:37:54;35.48;;;20.68;;
59876;SDS011;45749;51.140;17.184;2022-12-11T10:40:23;36.98;;;21.65;;
59876;SDS011;45749;51.140;17.184;2022-12-11T10:42:53;34.00;;;21.00;;
59876;SDS011;45749;51.140;17.184;2022-12-11T10:45:19;33.23;;;20.27;;
59876;SDS011;45749;51.140;17.184;2022-12-11T10:47:45;31.23;;;20.85;;
59876;SDS011;45749;51.140;17.184;2022-12-11T10:50:21;31.52;;;18.70;;
59876;SDS011;45749;51.140;17.184;2022-12-11T10:52:49;30.85;;;19.98;;
59876;SDS011;45749;51.140;17.184;2022-12-11T10:55:27;31.07;;;18.85;;
59876;SDS011;45749;51.140;17.184;2022-12-11T10:58:06;30.52;;;18.30;;
59876;SDS011;45749;51.140;17.184;2022-12-11T11:00:42;33.53;;;20.62;;
59876;SDS011;45749;51.140;17.184;2022-12-11T11:03:22;28.77;;;19.73;;
59876;SDS011;45749;51.140;17.184;2022-12-11T11:06:01;30.05;;;16.30;;
59876;SDS011;45749;51.140;17.184;2022-12-11T11:08:41;29.50;;;18.50;;
59876;SDS011;45749;51.140;17.184;2022-12-11T11:11:19;27.73;;;17.07;;
59876;SDS011;45749;51.140;17.184;2022-12-11T11:14:04;24.07;;;15.18;;
59876;SDS011;45749;51.140;17.184;2022-12-11T11:16:43;21.62;;;13.65;;
59876;SDS011;45749;51.140;17.184;2022-12-11T11:19:20;23.38;;;14.53;;
59876;SDS011;45749;51.140;17.184;2022-12-11T11:22:07;32.15;;;16.80;;
59876;SDS011;45749;51.140;17.184;2022-12-11T11:24:40;29.98;;;19.17;;
59876;SDS011;45749;51.140;17.184;2022-12-11T11:27:33;40.60;;;24.82;;
59876;SDS011;45749;51.140;17.184;2022-12-11T11:30:06;27.32;;;18.70;;
59876;SDS011;45749;51.140;17.184;2022-12-11T11:37:46;23.83;;;15.72;;
59876;SDS011;45749;51.140;17.184;2022-12-11T11:40:23;26.62;;;16.45;;
59876;SDS011;45749;51.140;17.184;2022-12-11T11:52:18;25.85;;;16.85;;
59876;SDS011;45749;51.140;17.184;2022-12-11T12:00:35;23.50;;;14.68;;
59876;SDS011;45749;51.140;17.184;2022-12-11T12:03:02;24.92;;;16.23;;
59876;SDS011;45749;51.140;17.184;2022-12-11T12:14:19;22.25;;;14.33;;
59876;SDS011;45749;51.140;17.184;2022-12-11T12:17:19;21.65;;;13.60;;
59876;SDS011;45749;51.140;17.184;2022-12-11T12:28:38;20.35;;;14.33;;
59876;SDS011;45749;51.140;17.184;2022-12-11T12:37:43;23.50;;;14.63;;
59876;SDS011;45749;51.140;17.184;2022-12-11T12:42:58;22.20;;;13.58;;
59876;SDS011;45749;51.140;17.184;2022-12-11T12:48:41;22.65;;;15.88;;
59876;SDS011;45749;51.140;17.184;2022-12-11T12:51:11;24.18;;;16.45;;
59876;SDS011;45749;51.140;17.184;2022-12-11T12:53:39;25.05;;;16.37;;
59876;SDS011;45749;51.140;17.184;2022-12-11T12:56:10;23.67;;;15.28;;
59876;SDS011;45749;51.140;17.184;2022-12-11T13:01:14;24.67;;;15.65;;
59876;SDS011;45749;51.140;17.184;2022-12-11T13:04:00;25.52;;;16.95;;
59876;SDS011;45749;51.140;17.184;2022-12-11T13:11:55;23.75;;;15.90;;
59876;SDS011;45749;51.140;17.184;2022-12-11T13:14:23;22.93;;;15.13;;
59876;SDS011;45749;51.140;17.184;2022-12-11T13:17:38;23.25;;;14.50;;
59876;SDS011;45749;51.140;17.184;2022-12-11T13:19:49;19.10;;;13.08;;
59876;SDS011;45749;51.140;17.184;2022-12-11T13:22:21;19.10;;;12.50;;
59876;SDS011;45749;51.140;17.184;2022-12-11T13:27:26;19.60;;;14.78;;
59876;SDS011;45749;51.140;17.184;2022-12-11T13:30:06;25.02;;;14.83;;
59876;SDS011;45749;51.140;17.184;2022-12-11T13:35:30;18.82;;;13.70;;
59876;SDS011;45749;51.140;17.184;2022-12-11T13:38:00;18.27;;;12.95;;
59876;SDS011;45749;51.140;17.184;2022-12-11T13:40:37;17.07;;;10.95;;
59876;SDS011;45749;51.140;17.184;2022-12-11T13:43:23;26.57;;;16.25;;
59876;SDS011;45749;51.140;17.184;2022-12-11T13:45:59;20.82;;;13.18;;
59876;SDS011;45749;51.140;17.184;2022-12-11T13:48:39;27.35;;;16.87;;
59876;SDS011;45749;51.140;17.184;2022-12-11T13:51:16;18.15;;;12.58;;
59876;SDS011;45749;51.140;17.184;2022-12-11T13:53:46;19.73;;;12.63;;
59876;SDS011;45749;51.140;17.184;2022-12-11T13:56:15;20.10;;;13.45;;
59876;SDS011;45749;51.140;17.184;2022-12-11T13:58:43;19.37;;;12.43;;
59876;SDS011;45749;51.140;17.184;2022-12-11T14:04:01;18.02;;;11.50;;
59876;SDS011;45749;51.140;17.184;2022-12-11T14:06:31;15.20;;;10.98;;
59876;SDS011;45749;51.140;17.184;2022-12-11T14:09:00;19.12;;;12.53;;
59876;SDS011;45749;51.140;17.184;2022-12-11T14:11:30;19.35;;;13.93;;
59876;SDS011;45749;51.140;17.184;2022-12-11T14:14:06;18.45;;;12.03;;
59876;SDS011;45749;51.140;17.184;2022-12-11T14:16:39;19.87;;;11.28;;
59876;SDS011;45749;51.140;17.184;2022-12-11T14:19:06;16.90;;;12.15;;
59876;SDS011;45749;51.140;17.184;2022-12-11T14:21:35;16.40;;;12.50;;
59876;SDS011;45749;51.140;17.184;2022-12-11T14:24:02;16.32;;;11.10;;
59876;SDS011;45749;51.140;17.184;2022-12-11T14:26:31;15.03;;;10.85;;
59876;SDS011;45749;51.140;17.184;2022-12-11T14:29:02;17.10;;;12.05;;
59876;SDS011;45749;51.140;17.184;2022-12-11T14:31:40;21.52;;;14.05;;
59876;SDS011;45749;51.140;17.184;2022-12-11T14:34:10;31.07;;;20.55;;
59876;SDS011;45749;51.140;17.184;2022-12-11T14:36:42;22.15;;;14.15;;
59876;SDS011;45749;51.140;17.184;2022-12-11T14:39:10;14.35;;;9.70;;
59876;SDS011;45749;51.140;17.184;2022-12-11T14:42:19;16.65;;;11.15;;
59876;SDS011;45749;51.140;17.184;2022-12-11T14:44:52;17.25;;;10.18;;
59876;SDS011;45749;51.140;17.184;2022-12-11T14:47:33;16.50;;;10.80;;
59876;SDS011;45749;51.140;17.184;2022-12-11T14:53:07;15.40;;;9.78;;
59876;SDS011;45749;51.140;17.184;2022-12-11T14:55:43;16.85;;;12.00;;
59876;SDS011;45749;51.140;17.184;2022-12-11T15:01:00;16.12;;;10.85;;
59876;SDS011;45749;51.140;17.184;2022-12-11T15:03:34;17.32;;;11.65;;
59876;SDS011;45749;51.140;17.184;2022-12-11T15:08:53;15.88;;;9.93;;
59876;SDS011;45749;51.140;17.184;2022-12-11T15:11:20;18.27;;;11.88;;
59876;SDS011;45749;51.140;17.184;2022-12-11T15:16:24;18.55;;;12.07;;
59876;SDS011;45749;51.140;17.184;2022-12-11T15:18:55;22.35;;;15.43;;
59876;SDS011;45749;51.140;17.184;2022-12-11T15:21:27;22.62;;;13.75;;
59876;SDS011;45749;51.140;17.184;2022-12-11T15:23:56;18.82;;;12.63;;
59876;SDS011;45749;51.140;17.184;2022-12-11T15:34:44;25.72;;;15.90;;
59876;SDS011;45749;51.140;17.184;2022-12-11T15:37:24;22.10;;;14.23;;
59876;SDS011;45749;51.140;17.184;2022-12-11T15:40:01;22.17;;;13.72;;
59876;SDS011;45749;51.140;17.184;2022-12-11T15:42:34;29.02;;;16.45;;
59876;SDS011;45749;51.140;17.184;2022-12-11T15:45:04;45.40;;;20.87;;
59876;SDS011;45749;51.140;17.184;2022-12-11T15:47:35;25.55;;;14.38;;
59876;SDS011;45749;51.140;17.184;2022-12-11T15:50:06;35.35;;;24.20;;
59876;SDS011;45749;51.140;17.184;2022-12-11T15:52:38;21.15;;;13.80;;
59876;SDS011;45749;51.140;17.184;2022-12-11T15:55:05;18.95;;;12.45;;
59876;SDS011;45749;51.140;17.184;2022-12-11T15:57:32;20.57;;;12.47;;
59876;SDS011;45749;51.140;17.184;2022-12-11T15:59:59;21.93;;;13.35;;
59876;SDS011;45749;51.140;17.184;2022-12-11T16:02:25;21.85;;;14.50;;
59876;SDS011;45749;51.140;17.184;2022-12-11T16:04:52;22.32;;;13.83;;
59876;SDS011;45749;51.140;17.184;2022-12-11T16:07:20;22.05;;;14.60;;
59876;SDS011;45749;51.140;17.184;2022-12-11T16:09:49;29.37;;;18.17;;
59876;SDS011;45749;51.140;17.184;2022-12-11T16:12:15;26.65;;;16.25;;
59876;SDS011;45749;51.140;17.184;2022-12-11T16:14:43;21.07;;;13.85;;
59876;SDS011;45749;51.140;17.184;2022-12-11T16:17:10;21.77;;;14.25;;
59876;SDS011;45749;51.140;17.184;2022-12-11T16:19:39;25.25;;;16.27;;
59876;SDS011;45749;51.140;17.184;2022-12-11T16:22:07;39.65;;;33.65;;
59876;SDS011;45749;51.140;17.184;2022-12-11T16:24:35;41.92;;;27.58;;
59876;SDS011;45749;51.140;17.184;2022-12-11T16:27:02;63.58;;;50.95;;
59876;SDS011;45749;51.140;17.184;2022-12-11T16:29:36;32.42;;;22.15;;